createdAt,value
2023-04-09T00:08:38.641Z,100602.16
2023-04-09T00:12:40.505Z,100592.47
2023-04-09T00:16:42.273Z,100586.09
2023-04-09T00:20:44.769Z,100576.53
2023-04-09T00:24:46.439Z,100578.56
2023-04-09T00:28:48.273Z,100577.91
2023-04-09T00:32:50.721Z,100582.81
2023-04-09T00:36:52.534Z,100575.97
2023-04-09T00:40:54.292Z,100576.53
2023-04-09T00:44:56.096Z,100576.59
2023-04-09T00:48:57.821Z,100571.78
2023-04-09T00:52:59.561Z,100579.28
2023-04-09T00:57:01.845Z,100582.28
2023-04-09T01:01:03.856Z,100582.59
2023-04-09T01:05:06.336Z,100575.34
2023-04-09T01:09:28.657Z,100584.97
2023-04-09T01:14:06.516Z,100575.28
2023-04-09T01:18:16.083Z,100580.19
2023-04-09T01:22:37.355Z,100581.13
2023-04-09T01:26:52.579Z,100574.75
2023-04-09T01:31:03.079Z,100576.13
2023-04-09T01:35:07.274Z,100572.28
2023-04-09T01:39:09.618Z,100569.09
2023-04-09T01:43:14.013Z,100568.81
2023-04-09T01:47:16.036Z,100569.19
2023-04-09T01:51:18.502Z,100571.25
2023-04-09T01:55:20.146Z,100571.25
2023-04-09T01:59:21.803Z,100573.78
2023-04-09T02:03:40.135Z,100572.75
2023-04-09T02:07:46.282Z,100580.09
2023-04-09T02:11:50.138Z,100576.50
2023-04-09T02:15:52.757Z,100581.13
2023-04-09T02:19:54.758Z,100586.56
2023-04-09T02:23:56.580Z,100582.81
2023-04-09T02:27:59.076Z,100574.66
2023-04-09T02:32:00.795Z,100571.91
2023-04-09T02:36:02.737Z,100571.06
2023-04-09T02:40:04.729Z,100572.09
2023-04-09T02:44:06.760Z,100573.97
2023-04-09T02:48:08.564Z,100568.53
2023-04-09T02:52:11.535Z,100572.25
2023-04-09T02:56:13.409Z,100565.81
2023-04-09T03:00:15.289Z,100573.97
2023-04-09T03:04:17.384Z,100562.03
2023-04-09T03:08:19.095Z,100564.09
2023-04-09T03:12:20.806Z,100559.22
2023-04-09T03:16:25.200Z,100555.19
2023-04-09T03:20:26.928Z,100562.22
2023-04-09T03:24:28.697Z,100558.34
2023-04-09T03:28:35.685Z,100556.53
2023-04-09T03:32:38.468Z,100553.06
2023-04-09T03:36:40.469Z,100553.63
2023-04-09T03:40:50.644Z,100548.25
2023-04-09T03:44:55.246Z,100546.41
2023-04-09T03:49:07.865Z,100552.59
2023-04-09T03:53:16.532Z,100545.00
2023-04-09T03:57:20.744Z,100545.53
2023-04-09T04:01:25.626Z,100548.81
2023-04-09T04:05:31.852Z,100550.19
2023-04-09T04:09:37.875Z,100545.13
2023-04-09T04:13:44.516Z,100547.56
2023-04-09T04:17:46.489Z,100548.28
2023-04-09T04:22:04.036Z,100552.75
2023-04-09T04:26:11.067Z,100555.81
2023-04-09T04:30:13.271Z,100561.47
2023-04-09T04:34:28.392Z,100559.94
2023-04-09T04:38:41.359Z,100562.31
2023-04-09T04:42:49.031Z,100561.59
2023-04-09T04:46:51.531Z,100561.81
2023-04-09T04:51:01.252Z,100559.03
2023-04-09T04:55:10.788Z,100564.78
2023-04-09T04:59:12.662Z,100566.31
2023-04-09T05:03:34.682Z,100566.31
2023-04-09T05:07:58.666Z,100559.16
2023-04-09T05:12:01.423Z,100565.06
2023-04-09T05:16:04.044Z,100563.34
2023-04-09T05:20:08.608Z,100571.91
2023-04-09T05:24:27.301Z,100577.78
2023-04-09T05:28:30.023Z,100579.31
2023-04-09T05:32:41.585Z,100576.03
2023-04-09T05:36:43.434Z,100583.69
2023-04-09T05:40:46.373Z,100587.25
2023-04-09T05:44:48.703Z,100580.34
2023-04-09T05:48:54.531Z,100584.38
2023-04-09T05:52:58.380Z,100577.47
2023-04-09T05:57:07.198Z,100584.84
2023-04-09T06:01:12.000Z,100581.44
2023-04-09T06:05:14.056Z,100582.34
2023-04-09T06:09:15.785Z,100572.88
2023-04-09T06:13:17.719Z,100573.91
2023-04-09T06:17:19.519Z,100584.88
2023-04-09T06:21:21.436Z,100584.53
2023-04-09T06:25:23.090Z,100592.00
2023-04-09T06:29:24.808Z,100585.38
2023-04-09T06:33:27.099Z,100580.97
2023-04-09T06:37:28.759Z,100587.97
2023-04-09T06:41:30.945Z,100590.09
2023-04-09T06:45:33.766Z,100596.41
2023-04-09T06:49:35.990Z,100601.91
2023-04-09T06:53:40.941Z,100599.31
2023-04-09T06:57:42.809Z,100600.31
2023-04-09T07:01:45.163Z,100600.69
2023-04-09T07:05:47.376Z,100601.00
2023-04-09T07:09:49.270Z,100604.72
2023-04-09T07:13:51.436Z,100601.78
2023-04-09T07:17:53.385Z,100597.50
2023-04-09T07:21:55.599Z,100598.91
2023-04-09T07:25:57.318Z,100598.56
2023-04-09T07:29:59.950Z,100603.66
2023-04-09T07:34:01.587Z,100600.44
2023-04-09T07:38:03.517Z,100604.00
2023-04-09T07:42:06.504Z,100615.88
2023-04-09T07:46:08.122Z,100606.84
2023-04-09T07:50:10.590Z,100612.03
2023-04-09T07:54:12.272Z,100616.59
2023-04-09T07:58:13.928Z,100616.66
2023-04-09T08:02:15.847Z,100618.28
2023-04-09T08:06:17.548Z,100624.06
2023-04-09T08:10:19.612Z,100619.19
2023-04-09T08:14:21.564Z,100624.88
2023-04-09T08:18:23.294Z,100637.28
2023-04-09T08:22:24.968Z,100636.94
2023-04-09T08:26:27.458Z,100637.69
2023-04-09T08:30:29.509Z,100645.81
2023-04-09T08:34:31.153Z,100637.19
2023-04-09T08:38:32.798Z,100643.38
2023-04-09T08:42:35.901Z,100647.13
2023-04-09T08:46:37.593Z,100649.22
2023-04-09T08:50:39.578Z,100651.53
2023-04-09T08:54:41.282Z,100644.44
2023-04-09T08:58:47.246Z,100648.25
2023-04-09T09:03:11.935Z,100642.38
2023-04-09T09:07:14.095Z,100649.56
2023-04-09T09:11:27.242Z,100649.34
2023-04-09T09:15:30.264Z,100650.13
2023-04-09T09:19:33.796Z,100649.13
2023-04-09T09:23:36.898Z,100651.03
2023-04-09T09:27:40.685Z,100651.63
2023-04-09T09:31:51.736Z,100641.44
2023-04-09T09:35:54.687Z,100640.88
2023-04-09T09:39:57.101Z,100642.13
2023-04-09T09:43:58.930Z,100638.72
2023-04-09T09:48:00.784Z,100640.94
2023-04-09T09:52:04.848Z,100632.94
2023-04-09T09:56:12.035Z,100636.34
2023-04-09T10:00:15.836Z,100629.72
2023-04-09T10:04:20.168Z,100628.22
2023-04-09T10:08:23.731Z,100622.94
2023-04-09T10:12:27.386Z,100612.59
2023-04-09T10:16:29.198Z,100618.72
2023-04-09T10:20:42.032Z,100620.38
2023-04-09T10:24:44.156Z,100616.69
2023-04-09T10:28:46.463Z,100614.13
2023-04-09T10:32:48.227Z,100611.38
2023-04-09T10:36:55.052Z,100606.47
2023-04-09T10:40:56.750Z,100602.34
2023-04-09T10:45:08.288Z,100601.53
2023-04-09T10:49:17.206Z,100598.91
2023-04-09T10:53:26.390Z,100591.75
2023-04-09T10:57:28.170Z,100591.31
2023-04-09T11:01:31.093Z,100590.94
2023-04-09T11:05:34.672Z,100591.66
2023-04-09T11:09:36.676Z,100592.59
2023-04-09T11:13:38.513Z,100596.84
2023-04-09T11:17:40.911Z,100586.53
2023-04-09T11:21:46.432Z,100587.91
2023-04-09T11:25:50.803Z,100580.13
2023-04-09T11:29:56.306Z,100573.16
2023-04-09T11:33:57.985Z,100575.09
2023-04-09T11:37:59.752Z,100570.56
2023-04-09T11:42:02.116Z,100563.59
2023-04-09T11:46:04.756Z,100579.50
2023-04-09T11:50:08.149Z,100566.72
2023-04-09T11:54:12.082Z,100569.47
2023-04-09T11:58:14.808Z,100563.81
2023-04-09T12:02:18.603Z,100566.34
2023-04-09T12:06:23.163Z,100570.53
2023-04-09T12:10:29.813Z,100575.84
2023-04-09T12:14:31.525Z,100569.16
2023-04-09T12:18:36.916Z,100577.25
2023-04-09T12:22:41.055Z,100566.69
2023-04-09T12:26:43.783Z,100571.13
2023-04-09T12:30:45.495Z,100566.19
2023-04-09T12:34:47.650Z,100566.47
2023-04-09T12:38:49.894Z,100559.22
2023-04-09T12:42:51.842Z,100548.38
2023-04-09T12:46:53.843Z,100547.22
2023-04-09T12:50:55.540Z,100539.44
2023-04-09T12:54:57.268Z,100531.53
2023-04-09T12:58:59.070Z,100522.06
2023-04-09T13:03:00.886Z,100518.44
2023-04-09T13:07:02.658Z,100516.31
2023-04-09T13:11:04.624Z,100516.84
2023-04-09T13:15:06.919Z,100508.56
2023-04-09T13:19:10.126Z,100503.59
2023-04-09T13:23:11.864Z,100500.78
2023-04-09T13:27:14.084Z,100495.94
2023-04-09T13:31:15.836Z,100491.22
2023-04-09T13:35:19.209Z,100492.84
2023-04-09T13:39:20.867Z,100484.16
2023-04-09T13:43:28.076Z,100482.84
2023-04-09T13:47:30.527Z,100487.78
2023-04-09T13:51:32.385Z,100479.41
2023-04-09T13:55:34.408Z,100465.66
2023-04-09T13:59:38.194Z,100466.94
2023-04-09T14:03:40.736Z,100458.72
2023-04-09T14:07:42.356Z,100462.22
2023-04-09T14:11:44.072Z,100453.41
2023-04-09T14:15:46.403Z,100455.44
2023-04-09T14:19:48.209Z,100443.22
2023-04-09T14:23:50.046Z,100453.56
2023-04-09T14:27:52.280Z,100442.19
2023-04-09T14:31:57.158Z,100442.19
2023-04-09T14:35:59.348Z,100436.09
2023-04-09T14:40:01.180Z,100436.94
2023-04-09T14:44:02.986Z,100431.34
2023-04-09T14:48:04.648Z,100431.91
2023-04-09T14:52:06.588Z,100431.06
2023-04-09T14:56:08.441Z,100423.53
2023-04-09T15:00:14.086Z,100425.78
2023-04-09T15:04:16.280Z,100423.00
2023-04-09T15:08:18.093Z,100425.78
2023-04-09T15:12:19.790Z,100414.09
2023-04-09T15:16:27.259Z,100410.19
2023-04-09T15:20:29.004Z,100412.41
2023-04-09T15:24:30.673Z,100405.69
2023-04-09T15:28:33.381Z,100403.16
2023-04-09T15:32:34.989Z,100411.22
2023-04-09T15:36:36.720Z,100398.97
2023-04-09T15:40:42.601Z,100403.69
2023-04-09T15:45:04.996Z,100409.75
2023-04-09T15:49:07.492Z,100408.06
2023-04-09T15:53:09.197Z,100406.66
2023-04-09T15:57:11.099Z,100402.56
2023-04-09T16:01:13.039Z,100404.28
2023-04-09T16:05:15.735Z,100399.56
2023-04-09T16:09:17.522Z,100402.63
2023-04-09T16:13:19.260Z,100397.63
2023-04-09T16:17:20.984Z,100397.91
2023-04-09T16:21:22.799Z,100398.44
2023-04-09T16:25:24.689Z,100395.88
2023-04-09T16:29:26.515Z,100398.28
2023-04-09T16:33:29.105Z,100390.16
2023-04-09T16:37:31.371Z,100387.22
2023-04-09T16:41:35.011Z,100389.00
2023-04-09T16:45:39.036Z,100397.16
2023-04-09T16:49:41.002Z,100394.81
2023-04-09T16:53:42.747Z,100391.16
2023-04-09T16:57:45.079Z,100389.97
2023-04-09T17:01:46.981Z,100388.56
2023-04-09T17:05:49.501Z,100383.59
2023-04-09T17:09:51.563Z,100390.38
2023-04-09T17:13:53.872Z,100379.97
2023-04-09T17:17:55.568Z,100391.31
2023-04-09T17:21:57.319Z,100391.94
2023-04-09T17:26:01.180Z,100387.72
2023-04-09T17:30:04.398Z,100391.78
2023-04-09T17:34:08.683Z,100394.28
2023-04-09T17:38:14.073Z,100397.59
2023-04-09T17:42:15.753Z,100405.97
2023-04-09T17:46:18.076Z,100405.69
2023-04-09T17:50:19.913Z,100407.78
2023-04-09T17:54:21.900Z,100402.94
2023-04-09T17:58:25.053Z,100404.00
2023-04-09T18:02:27.687Z,100410.22
2023-04-09T18:06:30.094Z,100412.63
2023-04-09T18:10:31.879Z,100425.91
2023-04-09T18:14:33.709Z,100427.00
2023-04-09T18:18:35.380Z,100436.97
2023-04-09T18:22:38.329Z,100437.75
2023-04-09T18:26:40.001Z,100427.38
2023-04-09T18:30:42.088Z,100434.78
2023-04-09T18:34:45.242Z,100432.59
2023-04-09T18:38:47.097Z,100440.09
2023-04-09T18:42:55.093Z,100447.06
2023-04-09T18:46:57.204Z,100453.19
2023-04-09T18:51:00.570Z,100451.88
2023-04-09T18:55:02.246Z,100446.56
2023-04-09T18:59:05.061Z,100450.91
2023-04-09T19:03:07.313Z,100450.59
2023-04-09T19:07:09.748Z,100446.47
2023-04-09T19:11:12.721Z,100449.72
2023-04-09T19:15:14.315Z,100463.16
2023-04-09T19:19:15.952Z,100464.28
2023-04-09T19:23:17.719Z,100463.28
2023-04-09T19:27:19.625Z,100462.28
2023-04-09T19:31:21.402Z,100461.47
2023-04-09T19:35:23.321Z,100459.41
2023-04-09T19:39:25.015Z,100452.91
2023-04-09T19:43:27.058Z,100452.72
2023-04-09T19:47:29.143Z,100454.00
2023-04-09T19:51:30.866Z,100457.44
2023-04-09T19:55:33.527Z,100454.50
2023-04-09T19:59:37.565Z,100464.72
2023-04-09T20:03:41.671Z,100462.63
2023-04-09T20:07:44.485Z,100463.72
2023-04-09T20:11:46.871Z,100460.81
2023-04-09T20:15:50.027Z,100460.22
2023-04-09T20:19:51.698Z,100461.13
2023-04-09T20:23:53.359Z,100456.22
2023-04-09T20:27:55.366Z,100450.56
2023-04-09T20:31:57.926Z,100452.28
2023-04-09T20:36:00.115Z,100451.88
2023-04-09T20:40:02.170Z,100445.78
2023-04-09T20:44:05.005Z,100455.06
2023-04-09T20:48:07.502Z,100454.44
2023-04-09T20:52:09.691Z,100451.28
2023-04-09T20:56:12.784Z,100444.34
2023-04-09T21:00:15.194Z,100453.22
2023-04-09T21:04:19.774Z,100451.53
2023-04-09T21:08:21.524Z,100448.41
2023-04-09T21:12:23.161Z,100447.13
2023-04-09T21:16:27.329Z,100462.75
2023-04-09T21:20:29.073Z,100459.19
2023-04-09T21:24:31.552Z,100457.91
2023-04-09T21:28:33.325Z,100452.00
2023-04-09T21:32:35.147Z,100447.38
2023-04-09T21:36:39.456Z,100446.53
2023-04-09T21:40:41.170Z,100444.41
2023-04-09T21:44:42.937Z,100436.38
2023-04-09T21:48:44.609Z,100436.38
2023-04-09T21:52:47.421Z,100432.81
2023-04-09T21:56:49.066Z,100437.69
2023-04-09T22:00:50.835Z,100430.28
2023-04-09T22:04:52.519Z,100438.53
2023-04-09T22:08:57.157Z,100439.38
2023-04-09T22:12:59.681Z,100435.59
2023-04-09T22:17:02.270Z,100441.28
2023-04-09T22:21:04.980Z,100443.41
2023-04-09T22:25:07.262Z,100433.31
2023-04-09T22:29:08.928Z,100441.53
2023-04-09T22:33:10.827Z,100452.34
2023-04-09T22:37:12.478Z,100442.81
2023-04-09T22:41:16.089Z,100440.75
2023-04-09T22:45:17.795Z,100435.69
2023-04-09T22:49:19.595Z,100435.28
2023-04-09T22:53:21.878Z,100430.44
2023-04-09T22:57:23.579Z,100436.13
2023-04-09T23:01:25.385Z,100433.59
2023-04-09T23:05:27.131Z,100429.38
2023-04-09T23:09:30.409Z,100427.72
2023-04-09T23:13:32.058Z,100426.88
2023-04-09T23:17:35.275Z,100427.28
2023-04-09T23:21:37.239Z,100430.22
2023-04-09T23:25:38.916Z,100431.50
2023-04-09T23:29:40.528Z,100433.41
2023-04-09T23:33:42.286Z,100433.41
2023-04-09T23:37:44.092Z,100428.34
2023-04-09T23:41:45.959Z,100428.78
2023-04-09T23:45:49.939Z,100419.31
2023-04-09T23:49:51.591Z,100421.19
2023-04-09T23:53:53.458Z,100412.97
2023-04-09T23:57:55.307Z,100404.53
